Temple Hill, Illinois
Current Conditions -  °F | °C
As of 8:15 AM on Sunday 25 Jan 2015 (Local Time) from KM30 Reporting Station
Light Rain Light Rain  
Wind Chill: 39°   Ceiling: 6000
Heat Index: 43°   Visibility: 10mi
Dew Point: 36°   Wind: 7mph
Humidity: 75%   Direction: 210°SSW
Pressure: 29.67"   Gusts: NA
Location:  37.3224°N, 88.5774°W
Report Text: KM30 251415Z AUTO 21006KT 10SM -RA BKN060 OVC070 06/02 A2967 RMK AO2 T00610020
Loading
Personal Weather Stations






























Interactive Weather Map New forecast layout! Learn more

10-Day Weather Forecast

Advertisements
Track Severe Weather on mobile